Time;durP1;ratioP1;P1;durP2;ratioP2;P2;SDS_P1;SDS_P2;PMS_P1;PMS_P2;Temp;Humidity;BMP_temperature;BMP_pressure;BME280_temperature;BME280_humidity;BME280_pressure;Samples;Min_cycle;Max_cycle;Signal;HPM_P1;HPM_P2
2023/05/22 07:57:52;;;;;;;;;12.50;11.75;;;;;19.02;55.79;101377.59;5093057;27;45487;-70
2023/05/22 08:00:18;;;;;;;;;11.25;11.25;;;;;19.15;55.85;101373.91;5091362;27;45420;-71
2023/05/22 08:02:43;;;;;;;;;11.25;10.50;;;;;19.29;55.27;101362.06;5074064;27;45520;-70
2023/05/22 08:05:09;;;;;;;;;12.67;12.67;;;;;19.54;55.66;101377.03;5100780;27;45526;-71
2023/05/22 08:07:35;;;;;;;;;13.67;11.67;;;;;19.77;55.37;101381.50;5081251;27;46518;-69
2023/05/22 08:10:07;;;;;;;;;10.00;9.67;;;;;19.94;54.85;101375.56;5080350;27;45532;-68
2023/05/22 08:12:32;;;;;;;;;10.33;10.33;;;;;20.13;54.46;101377.59;5084888;27;45717;-68
2023/05/22 08:14:58;;;;;;;;;12.67;10.67;;;;;20.30;54.12;101369.88;5082416;27;45559;-69
2023/05/22 08:17:23;;;;;;;;;10.00;10.00;;;;;20.46;53.80;101365.88;5088890;27;46480;-69
2023/05/22 08:19:48;;;;;;;;;11.00;9.33;;;;;20.60;54.27;101362.00;5085874;27;45409;-68
2023/05/22 08:22:14;;;;;;;;;12.50;12.50;;;;;20.85;53.31;101393.03;5088891;27;45398;-77
2023/05/22 08:24:39;;;;;;;;;15.00;14.75;;;;;20.92;52.94;101388.84;5075537;27;45503;-74
2023/05/22 08:27:05;;;;;;;;;16.75;15.00;;;;;21.03;52.05;101404.09;5082589;27;46570;-73
2023/05/22 08:29:30;;;;;;;;;15.75;12.75;;;;;21.14;52.42;101396.91;5088892;27;45514;-73
2023/05/22 08:31:56;;;;;;;;;14.50;12.25;;;;;21.21;52.09;101397.22;5089119;27;45447;-73
2023/05/22 08:34:22;;;;;;;;;15.50;12.25;;;;;21.26;51.56;101390.38;5089513;27;45817;-73
2023/05/22 08:36:48;;;;;;;;;14.75;14.50;;;;;21.36;51.61;101393.13;5086442;27;45547;-73
2023/05/22 08:39:14;;;;;;;;;14.67;13.67;;;;;21.41;51.11;101388.16;5088634;27;45485;-73
2023/05/22 08:41:42;;;;;;;;;15.67;15.00;;;;;21.48;50.97;101393.88;5088827;27;45465;-73
2023/05/22 08:44:07;;;;;;;;;13.50;12.50;;;;;21.53;51.17;101397.00;5089009;27;45621;-73
2023/05/22 08:46:36;;;;;;;;;20.33;15.00;;;;;21.59;50.64;101395.59;5089448;27;45459;-73
2023/05/22 08:49:03;;;;;;;;;14.00;14.00;;;;;21.64;50.71;101404.13;5088224;27;45499;-73
2023/05/22 08:51:32;;;;;;;;;16.67;15.00;;;;;21.71;50.34;101401.72;5084890;27;45512;-73
2023/05/22 08:53:58;;;;;;;;;16.00;16.00;;;;;21.75;50.53;101403.19;5087589;27;45867;-73
2023/05/22 08:56:24;;;;;;;;;16.00;14.67;;;;;21.79;49.96;101401.06;5075985;27;46116;-74
2023/05/22 08:58:50;;;;;;;;;16.50;16.50;;;;;21.81;50.25;101397.22;5086345;27;45527;-73
2023/05/22 09:01:16;;;;;;;;;19.00;17.00;;;;;21.82;49.89;101411.56;5082778;27;45563;-75
2023/05/22 09:03:41;;;;;;;;;12.67;12.67;;;;;21.85;50.05;101409.44;5081276;27;45406;-72
2023/05/22 09:06:09;;;;;;;;;14.33;10.33;;;;;21.87;50.11;101411.16;5075912;27;47681;-73
2023/05/22 09:08:35;;;;;;;;;17.33;12.67;;;;;21.93;50.23;101410.56;5074546;27;45521;-73
2023/05/22 09:11:01;;;;;;;;;16.00;12.33;;;;;21.97;50.10;101412.88;5074705;27;45489;-73
2023/05/22 09:13:30;;;;;;;;;14.00;13.67;;;;;22.01;50.23;101421.53;5073370;27;45585;-73
2023/05/22 09:16:08;;;;;;;;;16.33;14.33;;;;;22.03;49.49;101414.13;5075204;27;45390;-73
2023/05/22 09:18:36;;;;;;;;;15.33;15.33;;;;;22.05;49.54;101422.97;5074645;27;45489;-73
2023/05/22 09:21:02;;;;;;;;;13.67;12.00;;;;;22.07;49.46;101415.56;5075002;27;45544;-73
2023/05/22 09:23:27;;;;;;;;;20.00;16.67;;;;;22.09;49.69;101412.72;5070682;27;45509;-73
2023/05/22 09:25:55;;;;;;;;;15.00;13.33;;;;;22.12;49.35;101409.75;5067332;27;46223;-73
2023/05/22 09:28:21;;;;;;;;;15.67;13.00;;;;;22.13;49.52;101405.16;5069064;28;45488;-78
2023/05/22 09:30:53;;;;;;;;;16.00;13.00;;;;;22.17;49.56;101401.19;5070082;27;45414;-75
2023/05/22 09:33:21;;;;;;;;;15.33;13.00;;;;;22.19;49.53;101404.63;5065319;28;45522;-75
2023/05/22 09:35:47;;;;;;;;;13.67;12.67;;;;;22.21;49.40;101410.72;5073135;27;46840;-75
2023/05/22 09:38:13;;;;;;;;;15.67;14.00;;;;;22.22;49.47;101405.19;5073619;27;45346;-75
2023/05/22 09:40:39;;;;;;;;;15.67;13.67;;;;;22.25;49.45;101407.56;5073699;28;45740;-75
2023/05/22 09:43:09;;;;;;;;;13.00;13.00;;;;;22.27;49.68;101407.44;5069804;27;45404;-75
2023/05/22 09:45:35;;;;;;;;;13.00;12.00;;;;;22.29;49.63;101397.34;5064173;27;45492;-75
2023/05/22 09:48:04;;;;;;;;;13.67;12.67;;;;;22.30;49.41;101393.63;5071529;27;45442;-75
2023/05/22 09:50:33;;;;;;;;;12.00;12.00;;;;;22.33;49.79;101395.19;5073736;27;45477;-76
2023/05/22 09:53:04;;;;;;;;;14.00;11.67;;;;;22.37;49.88;101408.28;5073776;28;45661;-78
2023/05/22 09:55:30;;;;;;;;;11.33;11.33;;;;;22.41;49.84;101394.47;5060804;27;45541;-75
2023/05/22 09:57:57;;;;;;;;;15.00;12.33;;;;;22.43;49.78;101396.03;5072680;27;45969;-76
2023/05/22 10:00:24;;;;;;;;;20.00;11.00;;;;;22.45;49.58;101396.75;5074528;27;45422;-79
2023/05/22 10:02:57;;;;;;;;;14.00;14.00;;;;;22.46;50.22;101401.16;5074230;27;45525;-76
2023/05/22 10:05:28;;;;;;;;;17.33;13.33;;;;;22.47;49.98;101391.19;5073408;27;46151;-79
2023/05/22 10:07:56;;;;;;;;;15.00;13.33;;;;;22.51;49.94;101393.47;5067228;27;45715;-76
2023/05/22 10:10:24;;;;;;;;;15.00;13.67;;;;;22.53;49.76;101390.63;5057990;27;45482;-76
2023/05/22 10:12:55;;;;;;;;;12.67;12.67;;;;;22.53;49.83;101385.19;5064319;27;45458;-78
2023/05/22 10:15:20;;;;;;;;;14.00;12.67;;;;;22.56;49.61;101390.34;5060661;28;45490;-76
2023/05/22 10:17:46;;;;;;;;;10.00;10.00;;;;;22.58;50.13;101392.91;5069622;28;45810;-75
2023/05/22 10:20:14;;;;;;;;;18.67;15.67;;;;;22.60;49.61;101386.34;5070217;27;46405;-76
2023/05/22 10:22:41;;;;;;;;;15.00;14.00;;;;;22.61;49.81;101384.50;5072943;27;45474;-77
2023/05/22 10:25:07;;;;;;;;;15.33;14.00;;;;;22.61;49.84;101379.09;5072426;28;46352;-77
2023/05/22 10:27:32;;;;;;;;;13.67;11.33;;;;;22.63;49.70;101385.19;5065979;27;45495;-76
2023/05/22 10:30:31;;;;;;;;;20.00;13.00;;;;;22.64;49.50;101387.75;5061181;27;45673;-78
2023/05/22 10:33:10;;;;;;;;;13.67;13.67;;;;;22.66;49.98;101381.34;5069034;28;45478;-76
2023/05/22 10:36:06;;;;;;;;;15.33;14.33;;;;;22.71;49.73;101384.44;5073776;27;45636;-76
2023/05/22 10:38:40;;;;;;;;;12.33;12.33;;;;;22.71;49.65;101379.03;5072681;27;45476;-76
2023/05/22 10:41:07;;;;;;;;;13.67;11.33;;;;;22.73;49.81;101379.75;5065841;27;45498;-76
2023/05/22 10:43:38;;;;;;;;;15.67;15.67;;;;;22.75;50.00;101380.44;5058571;27;45484;-77
2023/05/22 10:46:05;;;;;;;;;13.33;12.33;;;;;22.74;49.77;101367.94;5064358;27;46198;-75
2023/05/22 10:48:46;;;;;;;;;16.33;14.00;;;;;22.76;49.80;101361.38;5072646;27;45450;-77
2023/05/22 10:51:13;;;;;;;;;11.67;11.67;;;;;22.77;49.87;101365.78;5073107;27;45679;-77
2023/05/22 10:53:41;;;;;;;;;13.00;12.67;;;;;22.79;49.75;101371.03;5072408;28;45398;-76
2023/05/22 10:56:10;;;;;;;;;17.33;16.00;;;;;22.82;49.81;101369.88;5062470;27;45596;-78
2023/05/22 10:58:36;;;;;;;;;16.00;16.00;;;;;22.81;49.69;101363.63;5084402;27;45721;-74
2023/05/22 11:01:17;;;;;;;;;12.33;12.00;;;;;22.83;49.93;101360.75;5063541;27;45498;-75
2023/05/22 11:04:00;;;;;;;;;14.00;12.67;;;;;22.83;49.65;101361.63;5052035;28;46777;-74
2023/05/22 11:06:34;;;;;;;;;14.67;13.33;;;;;22.85;49.54;101362.31;5068917;28;47165;-73
2023/05/22 11:09:16;;;;;;;;;14.67;11.67;;;;;22.86;49.83;101361.34;5069209;27;45442;-73
2023/05/22 11:11:41;;;;;;;;;14.33;14.33;;;;;22.87;50.02;101359.47;5069551;27;45595;-76
2023/05/22 14:26:35;;;;;;;;;37.75;30.75;;;;;19.72;56.31;101325.31;5050082;28;47181;-75
2023/05/22 14:29:00;;;;;;;;;30.00;27.25;;;;;19.90;56.46;101333.69;5041143;28;45526;-77
2023/05/22 14:31:27;;;;;;;;;30.25;29.75;;;;;20.10;56.14;101323.94;5047834;28;47447;-76
2023/05/22 14:33:53;;;;;;;;;30.25;26.75;;;;;20.30;55.52;101323.19;5048285;28;45579;-74
2023/05/22 14:36:18;;;;;;;;;30.75;29.00;;;;;20.52;54.89;101316.81;5044880;28;46172;-74
2023/05/22 14:38:43;;;;;;;;;29.50;26.25;;;;;20.71;54.81;101320.56;5048261;28;57706;-73
2023/05/22 14:41:09;;;;;;;;;28.00;25.75;;;;;20.90;54.20;101315.31;5047197;28;46546;-73
2023/05/22 14:43:35;;;;;;;;;29.50;27.50;;;;;21.08;54.12;101324.56;5045652;28;45555;-74
2023/05/22 14:46:01;;;;;;;;;25.25;25.25;;;;;21.23;53.69;101320.50;5058881;28;45773;-74
2023/05/22 14:48:28;;;;;;;;;32.75;27.50;;;;;21.40;53.83;101323.50;5038940;28;45431;-74
2023/05/22 14:50:53;;;;;;;;;27.50;25.25;;;;;21.53;53.53;101323.22;5046243;28;45626;-74
2023/05/22 14:53:19;;;;;;;;;27.25;25.50;;;;;21.66;52.78;101318.38;5048606;28;45557;-73
2023/05/22 14:55:44;;;;;;;;;28.75;25.75;;;;;21.77;52.87;101320.13;5043688;28;45589;-74
2023/05/22 14:58:10;;;;;;;;;26.25;22.75;;;;;21.88;52.77;101318.28;5046889;28;45745;-74
2023/05/22 15:00:35;;;;;;;;;29.00;28.50;;;;;21.99;52.33;101318.13;5047943;28;45556;-75
2023/05/22 15:03:01;;;;;;;;;27.50;22.50;;;;;22.10;52.48;101315.25;5045580;28;45589;-73
2023/05/22 15:05:27;;;;;;;;;28.75;26.75;;;;;22.19;51.56;101321.63;5047757;28;45361;-73
2023/05/22 15:07:57;;;;;;;;;28.00;27.75;;;;;22.27;51.91;101314.66;5044298;28;45479;-73
2023/05/22 15:10:22;;;;;;;;;26.50;25.50;;;;;22.33;51.58;101311.38;5048527;28;45468;-73
2023/05/22 15:12:47;;;;;;;;;27.00;25.50;;;;;22.37;50.77;101310.91;5046505;28;45609;-73
2023/05/22 15:15:13;;;;;;;;;24.75;24.75;;;;;22.42;50.89;101312.31;5047555;28;47282;-73
2023/05/22 15:17:38;;;;;;;;;21.25;19.50;;;;;22.47;50.38;101316.31;5039181;28;45986;-73
2023/05/22 15:20:04;;;;;;;;;23.50;23.50;;;;;22.52;50.65;101323.97;5045990;28;50367;-73
2023/05/22 15:22:30;;;;;;;;;24.75;22.00;;;;;22.56;50.48;101317.28;5037676;28;45391;-73
2023/05/22 15:25:04;;;;;;;;;29.50;28.25;;;;;22.59;50.65;101324.25;5036032;28;46854;-74
2023/05/22 15:27:29;;;;;;;;;28.25;26.75;;;;;22.60;50.19;101316.00;5047629;28;45628;-74
2023/05/22 15:29:58;;;;;;;;;27.00;27.00;;;;;22.63;50.27;101314.84;5039933;28;45537;-75
2023/05/22 15:32:24;;;;;;;;;22.50;22.50;;;;;22.66;50.48;101316.41;5047174;28;45958;-74
2023/05/22 15:34:49;;;;;;;;;33.25;28.25;;;;;22.67;50.01;101316.25;5041306;28;45635;-75
2023/05/22 15:37:14;;;;;;;;;24.50;24.50;;;;;22.70;50.43;101321.38;5036773;28;45727;-74
2023/05/22 15:39:40;;;;;;;;;26.75;26.75;;;;;22.72;50.05;101322.06;5028978;28;45303;-75
2023/05/22 15:42:08;;;;;;;;;26.00;24.50;;;;;22.73;50.09;101315.66;5031525;28;50351;-76
2023/05/22 15:44:33;;;;;;;;;28.25;24.75;;;;;22.75;50.14;101318.22;5032844;28;46662;-74
2023/05/22 15:46:58;;;;;;;;;29.00;26.00;;;;;22.78;49.97;101317.94;5025567;28;55002;-75
2023/05/22 15:49:23;;;;;;;;;29.50;28.25;;;;;22.77;49.73;101305.41;5026489;28;45575;-76
2023/05/22 15:51:49;;;;;;;;;28.25;28.00;;;;;22.81;50.19;101312.19;5033834;28;51603;-76
2023/05/22 15:54:14;;;;;;;;;22.00;22.00;;;;;22.82;49.91;101316.63;5031127;28;46211;-77
2023/05/22 15:56:39;;;;;;;;;30.00;27.25;;;;;22.83;50.09;101314.75;5024431;28;45448;-76
2023/05/22 15:59:05;;;;;;;;;29.75;26.75;;;;;22.80;50.04;101305.09;5030979;28;52583;-75
2023/05/22 16:01:30;;;;;;;;;25.50;25.25;;;;;22.83;49.91;101307.50;5034116;28;45753;-76
2023/05/22 16:03:55;;;;;;;;;25.75;25.75;;;;;22.81;49.98;101312.19;5021502;28;45380;-76
2023/05/22 16:06:24;;;;;;;;;21.00;21.00;;;;;22.82;49.98;101304.94;5034276;28;45504;-76
2023/05/22 16:08:49;;;;;;;;;28.25;26.75;;;;;22.82;49.82;101311.22;5034080;28;45537;-77
2023/05/22 16:11:14;;;;;;;;;23.50;23.50;;;;;22.81;49.74;101312.19;5032786;28;45836;-76
2023/05/22 16:13:40;;;;;;;;;26.75;23.75;;;;;22.84;49.86;101321.91;5012046;28;45959;-75
2023/05/22 16:16:05;;;;;;;;;23.75;22.25;;;;;22.83;50.08;101325.59;5022184;28;48908;-75
2023/05/22 16:18:31;;;;;;;;;21.50;21.50;;;;;22.84;49.64;101322.72;5040135;28;45526;-74
2023/05/22 16:20:56;;;;;;;;;23.00;22.00;;;;;22.84;49.99;101322.72;5019867;28;45935;-74
2023/05/22 16:23:21;;;;;;;;;23.75;22.50;;;;;22.86;49.57;101319.88;5014980;28;45627;-75
2023/05/22 16:25:47;;;;;;;;;25.00;21.75;;;;;22.87;49.79;101317.03;5022481;28;51945;-74
2023/05/22 16:28:12;;;;;;;;;24.75;22.00;;;;;22.88;49.87;101318.72;5021301;28;45431;-74
2023/05/22 16:30:38;;;;;;;;;25.50;23.75;;;;;22.92;49.89;101323.84;5018714;28;45709;-74
2023/05/22 16:33:04;;;;;;;;;30.75;29.50;;;;;22.92;49.75;101313.03;5014884;28;46238;-74
2023/05/22 16:35:30;;;;;;;;;27.25;23.50;;;;;22.90;49.73;101305.88;5020554;28;45945;-74
2023/05/22 16:37:55;;;;;;;;;22.25;21.25;;;;;22.94;49.66;101317.28;5026670;28;45847;-74
2023/05/22 16:40:21;;;;;;;;;26.25;26.00;;;;;22.96;49.40;101320.69;5023943;28;45612;-74
2023/05/22 16:42:46;;;;;;;;;24.67;22.67;;;;;22.97;49.79;101316.13;5015829;28;45523;-74
2023/05/22 16:45:12;;;;;;;;;28.25;24.50;;;;;22.94;49.82;101303.75;5017203;28;45296;-74
2023/05/22 16:47:37;;;;;;;;;29.25;24.50;;;;;22.99;49.80;101320.38;5015611;28;45369;-74
2023/05/22 16:50:03;;;;;;;;;23.67;22.00;;;;;23.00;49.48;101319.38;5019779;28;45607;-73
2023/05/22 16:52:29;;;;;;;;;23.75;23.50;;;;;23.01;49.69;101322.94;5022230;28;45372;-74
2023/05/22 16:54:54;;;;;;;;;23.67;23.67;;;;;23.04;49.63;101328.03;5017459;28;45642;-75
2023/05/22 16:57:19;;;;;;;;;23.75;23.75;;;;;23.07;49.42;101332.31;5022442;28;45391;-75
2023/05/22 16:59:45;;;;;;;;;29.00;25.00;;;;;23.07;49.33;101341.28;5031583;28;52570;-76
2023/05/22 17:02:10;;;;;;;;;24.67;24.33;;;;;23.06;49.29;101331.47;5031769;28;45459;-75
2023/05/22 17:04:36;;;;;;;;;23.00;21.00;;;;;23.09;49.27;101344.69;5028035;28;45789;-75
2023/05/22 17:07:02;;;;;;;;;29.75;26.50;;;;;23.11;49.39;101337.28;5020963;28;45566;-76
2023/05/22 17:09:27;;;;;;;;;23.00;22.50;;;;;23.12;49.94;101341.69;5029837;28;45697;-75
2023/05/22 17:11:53;;;;;;;;;27.00;23.25;;;;;23.12;49.43;101341.69;5041137;28;48148;-76
2023/05/22 17:14:20;;;;;;;;;22.50;22.50;;;;;23.13;49.35;101348.78;5017263;28;45681;-74
2023/05/22 17:16:46;;;;;;;;;26.75;23.50;;;;;23.12;49.26;101348.94;5017465;28;45455;-75
2023/05/22 17:19:12;;;;;;;;;26.25;23.75;;;;;23.10;48.99;101349.09;5015846;28;45389;-74
2023/05/22 17:21:37;;;;;;;;;23.50;22.00;;;;;23.12;49.58;101352.50;5029545;28;45629;-74
2023/05/22 17:24:02;;;;;;;;;21.50;20.75;;;;;23.14;49.29;101353.19;5013517;28;46310;-75
2023/05/22 17:26:28;;;;;;;;;22.00;21.75;;;;;23.14;49.31;101364.03;5020938;28;46420;-74
2023/05/22 17:28:53;;;;;;;;;23.50;22.25;;;;;23.12;49.29;101348.94;5018330;28;45398;-74
2023/05/22 17:31:18;;;;;;;;;21.75;21.75;;;;;23.15;49.26;101356.78;5022798;28;46205;-74
2023/05/22 17:33:44;;;;;;;;;23.50;20.25;;;;;23.15;49.25;101351.34;5017743;28;54459;-74
2023/05/22 17:36:09;;;;;;;;;21.25;21.25;;;;;23.16;49.13;101351.22;5018534;28;45580;-74
2023/05/22 17:38:36;;;;;;;;;22.25;21.75;;;;;23.17;49.28;101361.03;5020884;28;45451;-75
2023/05/22 17:41:01;;;;;;;;;25.00;22.00;;;;;23.17;49.31;101355.63;5018105;28;46012;-74
2023/05/22 17:43:27;;;;;;;;;20.25;18.25;;;;;23.19;49.13;101365.44;5019674;28;45484;-74
2023/05/22 17:45:53;;;;;;;;;20.33;20.00;;;;;23.17;48.90;101358.31;5015998;28;45561;-74
2023/05/22 17:48:22;;;;;;;;;23.67;22.33;;;;;23.17;48.92;101360.16;5020186;28;45810;-75
2023/05/22 17:50:48;;;;;;;;;24.00;22.25;;;;;23.19;49.00;101363.59;5020526;28;45884;-75
2023/05/22 17:53:16;;;;;;;;;22.25;21.00;;;;;23.18;48.91;101364.59;5020741;28;45834;-74
2023/05/22 17:55:43;;;;;;;;;25.25;23.25;;;;;23.20;49.03;101364.44;5014358;28;45482;-75
2023/05/22 17:58:09;;;;;;;;;26.00;21.25;;;;;23.18;48.32;101367.31;5016526;28;45486;-75
2023/05/22 18:00:34;;;;;;;;;24.75;23.50;;;;;23.20;48.70;101369.84;5021738;28;45483;-74
2023/05/22 18:03:00;;;;;;;;;22.00;21.00;;;;;23.21;48.93;101379.69;5020116;28;45872;-75
2023/05/22 18:05:25;;;;;;;;;17.67;17.33;;;;;23.20;48.90;101378.84;5020822;28;45600;-75
2023/05/22 18:07:50;;;;;;;;;24.75;22.00;;;;;23.18;49.01;101370.03;5020559;28;45493;-75
2023/05/22 18:10:16;;;;;;;;;23.25;23.25;;;;;23.17;48.69;101371.00;5020846;28;46228;-74
2023/05/22 18:12:41;;;;;;;;;19.67;18.33;;;;;23.19;48.95;101378.97;5017477;28;45676;-75
2023/05/22 18:15:09;;;;;;;;;21.00;19.50;;;;;23.17;48.62;101379.13;5020475;28;45416;-75
2023/05/22 18:17:34;;;;;;;;;21.67;20.00;;;;;23.16;49.42;101382.84;5017597;28;45502;-75
2023/05/22 18:20:00;;;;;;;;;22.75;21.75;;;;;23.15;48.77;101391.97;5016748;28;46997;-75
2023/05/22 18:22:25;;;;;;;;;24.00;22.50;;;;;23.12;48.50;101392.25;5017792;28;53763;-74
2023/05/22 18:24:50;;;;;;;;;19.67;18.00;;;;;23.12;48.82;101387.72;5017736;28;45396;-75
2023/05/22 18:27:15;;;;;;;;;23.33;21.67;;;;;23.14;48.63;101390.28;5020725;28;54460;-74
2023/05/22 18:29:41;;;;;;;;;20.00;17.67;;;;;23.13;48.75;101397.53;5014757;28;49457;-74
2023/05/22 18:32:08;;;;;;;;;22.00;20.67;;;;;23.13;48.68;101399.41;5022160;28;45377;-75
2023/05/22 18:34:34;;;;;;;;;21.33;21.33;;;;;23.13;48.57;101404.81;5019184;28;45497;-74
2023/05/22 18:37:00;;;;;;;;;16.33;15.67;;;;;23.12;48.33;101403.97;5018053;28;45924;-75
2023/05/22 18:39:25;;;;;;;;;21.00;21.00;;;;;23.10;48.54;101405.94;5019367;28;53694;-75
2023/05/22 18:41:50;;;;;;;;;19.67;19.67;;;;;23.09;48.61;101400.72;5018317;28;45520;-75
2023/05/22 18:44:16;;;;;;;;;20.00;18.33;;;;;23.07;48.64;101403.56;5022923;28;45680;-75
2023/05/22 18:46:41;;;;;;;;;19.67;19.67;;;;;23.06;48.66;101415.41;5020193;28;45467;-75
2023/05/22 18:49:06;;;;;;;;;20.00;18.00;;;;;23.03;48.60;101413.84;5018109;28;56880;-75
2023/05/22 18:51:32;;;;;;;;;21.33;21.33;;;;;23.05;48.47;101413.66;5020952;28;48994;-75
2023/05/22 18:53:57;;;;;;;;;22.33;22.33;;;;;23.03;48.70;101416.53;5017710;28;45448;-75
2023/05/22 18:56:22;;;;;;;;;24.67;21.33;;;;;23.04;48.25;101422.78;5017816;28;45518;-74
2023/05/22 18:58:48;;;;;;;;;20.67;20.67;;;;;23.02;48.55;101424.81;5014850;28;45505;-74
2023/05/22 19:01:15;;;;;;;;;24.00;21.00;;;;;23.02;48.58;101427.53;5021773;28;56924;-74
2023/05/22 19:03:40;;;;;;;;;25.67;21.00;;;;;23.03;48.24;101432.78;5018325;28;45463;-74
2023/05/22 19:06:07;;;;;;;;;20.33;20.00;;;;;23.02;48.52;101433.78;5020843;28;45389;-74
2023/05/22 19:08:33;;;;;;;;;22.67;21.67;;;;;23.03;48.60;101440.03;5024301;28;46103;-74
2023/05/22 19:10:58;;;;;;;;;18.67;17.67;;;;;23.00;48.57;101443.03;5026156;28;45906;-74
2023/05/22 19:13:24;;;;;;;;;22.33;21.33;;;;;23.02;48.35;101446.47;5020315;28;46135;-73
2023/05/22 19:15:50;;;;;;;;;24.33;21.67;;;;;22.97;48.53;101446.06;5025254;28;45583;-74
2023/05/22 19:18:15;;;;;;;;;22.33;22.33;;;;;22.99;48.55;101460.28;5021607;28;45554;-74
2023/05/22 19:20:41;;;;;;;;;23.00;22.00;;;;;22.99;48.56;101468.41;5028996;28;45549;-74
2023/05/22 19:23:08;;;;;;;;;23.67;22.33;;;;;22.99;48.73;101471.97;5031218;28;49535;-74
2023/05/22 19:25:33;;;;;;;;;16.00;15.33;;;;;23.00;48.75;101467.41;5030391;28;45424;-74
2023/05/22 19:27:59;;;;;;;;;22.00;19.33;;;;;22.99;48.78;101463.88;5032620;28;45532;-75
2023/05/22 19:30:24;;;;;;;;;19.00;18.33;;;;;23.01;48.83;101467.25;5030956;28;45543;-74
2023/05/22 19:32:49;;;;;;;;;22.33;21.00;;;;;23.03;49.13;101470.69;5033951;28;45472;-74
2023/05/22 19:35:16;;;;;;;;;22.00;19.67;;;;;23.04;48.74;101468.81;5033813;28;45358;-75
2023/05/22 19:37:41;;;;;;;;;20.67;20.00;;;;;23.06;49.01;101471.38;5029846;28;46193;-75
2023/05/22 19:40:08;;;;;;;;;24.00;22.67;;;;;23.08;49.09;101482.91;5031595;28;45825;-74
2023/05/22 19:42:36;;;;;;;;;23.00;21.50;;;;;23.10;49.10;101486.34;5032320;28;45460;-74
2023/05/22 19:45:02;;;;;;;;;21.00;20.00;;;;;23.11;49.08;101502.44;5031425;28;45565;-75
2023/05/22 19:47:27;;;;;;;;;21.00;21.00;;;;;23.12;49.32;101500.56;5035814;28;48230;-75
2023/05/22 19:49:52;;;;;;;;;19.33;17.67;;;;;23.14;49.03;101510.25;5023747;28;45515;-75
2023/05/22 19:52:18;;;;;;;;;18.33;18.00;;;;;23.14;48.91;101494.00;5031301;28;47628;-75
2023/05/22 19:54:43;;;;;;;;;19.00;19.00;;;;;23.16;48.98;101499.28;5013066;28;45352;-75
2023/05/22 19:57:09;;;;;;;;;17.00;16.67;;;;;23.15;48.80;101520.09;5028531;28;46354;-77
2023/05/22 19:59:34;;;;;;;;;17.67;17.67;;;;;23.15;48.90;101522.81;5017842;28;46970;-77
2023/05/22 20:01:59;;;;;;;;;17.33;17.33;;;;;23.16;48.84;101526.34;5027393;28;45825;-77
2023/05/22 20:04:24;;;;;;;;;20.33;20.00;;;;;23.16;49.05;101535.34;5024644;28;55123;-76
2023/05/22 20:06:50;;;;;;;;;19.33;16.67;;;;;23.16;48.96;101540.75;5017522;28;60539;-75
2023/05/22 20:09:15;;;;;;;;;20.00;20.00;;;;;23.19;49.28;101552.28;5026677;28;45679;-74
2023/05/22 20:11:41;;;;;;;;;22.33;20.67;;;;;23.20;48.78;101567.53;5028902;28;45400;-75
2023/05/22 20:14:07;;;;;;;;;21.67;19.00;;;;;23.19;48.76;101565.81;5030466;28;45933;-74
2023/05/22 20:16:32;;;;;;;;;20.00;17.67;;;;;23.18;48.59;101562.28;5028329;28;45628;-75
2023/05/22 20:18:57;;;;;;;;;20.33;20.00;;;;;23.17;48.61;101561.41;5021114;28;45537;-75
2023/05/22 20:21:22;;;;;;;;;22.67;21.00;;;;;23.21;49.44;101569.25;5024000;28;46062;-75
2023/05/22 20:23:48;;;;;;;;;18.67;18.67;;;;;23.23;49.45;101572.66;5015088;28;45770;-75
2023/05/22 20:26:13;;;;;;;;;20.67;19.00;;;;;23.23;48.95;101572.66;5021868;28;46046;-74
2023/05/22 20:28:39;;;;;;;;;18.00;17.67;;;;;23.22;49.21;101570.97;5026812;28;45748;-74
2023/05/22 20:31:04;;;;;;;;;18.33;18.33;;;;;23.23;48.79;101580.78;5028247;28;45802;-74
2023/05/22 20:33:30;;;;;;;;;20.33;20.00;;;;;23.21;49.21;101575.50;5020291;28;45462;-75
2023/05/22 20:35:57;;;;;;;;;20.00;20.00;;;;;23.22;49.08;101573.66;5018035;28;48363;-75
2023/05/22 20:38:22;;;;;;;;;21.00;20.33;;;;;23.23;49.28;101569.97;5023268;28;45803;-75
2023/05/22 20:40:48;;;;;;;;;18.00;16.67;;;;;23.23;49.25;101581.66;5023143;28;45690;-76
2023/05/22 20:43:13;;;;;;;;;19.67;19.00;;;;;23.22;49.22;101585.34;5023465;28;46509;-76
2023/05/22 20:45:40;;;;;;;;;18.67;17.33;;;;;23.27;49.21;101601.16;5023077;28;46111;-76
2023/05/22 20:48:07;;;;;;;;;18.33;18.33;;;;;23.29;49.25;101607.28;5022308;28;45838;-76
2023/05/22 20:50:34;;;;;;;;;19.33;14.67;;;;;23.32;49.32;101612.41;5021460;28;53133;-76
2023/05/22 20:52:59;;;;;;;;;17.67;15.67;;;;;23.33;49.28;101610.59;5023882;28;45792;-75
2023/05/22 20:55:24;;;;;;;;;17.33;17.33;;;;;23.34;49.31;101610.44;5020122;28;45511;-76
2023/05/22 20:57:50;;;;;;;;;20.00;18.00;;;;;23.32;49.19;101619.66;5020780;28;46518;-76
2023/05/22 21:00:16;;;;;;;;;18.33;17.67;;;;;23.34;49.07;101617.72;5022999;28;45471;-76
2023/05/22 21:02:42;;;;;;;;;17.00;16.67;;;;;23.34;49.42;101629.41;5023005;28;45577;-76
2023/05/22 21:05:07;;;;;;;;;16.67;15.67;;;;;23.35;49.33;101623.00;5021266;28;45662;-75
2023/05/22 21:07:33;;;;;;;;;17.33;16.00;;;;;23.37;49.51;101622.84;5021256;28;45349;-77
